sensor_id;sensor_type;location;lat;lon;timestamp;P1;durP1;ratioP1;P2;durP2;ratioP2
10588;SDS011;5342;55.676;13.346;2022-12-15T00:02:30;7.55;;;5.65;;
10588;SDS011;5342;55.676;13.346;2022-12-15T00:05:16;8.23;;;5.45;;
10588;SDS011;5342;55.676;13.346;2022-12-15T00:08:05;10.90;;;6.43;;
10588;SDS011;5342;55.676;13.346;2022-12-15T00:10:50;11.73;;;6.45;;
10588;SDS011;5342;55.676;13.346;2022-12-15T00:13:35;10.60;;;6.75;;
10588;SDS011;5342;55.676;13.346;2022-12-15T00:16:21;11.57;;;6.47;;
10588;SDS011;5342;55.676;13.346;2022-12-15T00:19:06;10.00;;;6.47;;
10588;SDS011;5342;55.676;13.346;2022-12-15T00:21:51;9.07;;;6.43;;
10588;SDS011;5342;55.676;13.346;2022-12-15T00:24:36;9.93;;;6.40;;
10588;SDS011;5342;55.676;13.346;2022-12-15T00:27:22;9.85;;;6.43;;
10588;SDS011;5342;55.676;13.346;2022-12-15T00:30:07;9.43;;;6.03;;
10588;SDS011;5342;55.676;13.346;2022-12-15T00:32:54;8.88;;;6.43;;
10588;SDS011;5342;55.676;13.346;2022-12-15T00:35:39;8.40;;;5.85;;
10588;SDS011;5342;55.676;13.346;2022-12-15T00:38:24;9.65;;;6.72;;
10588;SDS011;5342;55.676;13.346;2022-12-15T00:41:13;9.68;;;6.55;;
10588;SDS011;5342;55.676;13.346;2022-12-15T00:43:40;7.35;;;5.80;;
10588;SDS011;5342;55.676;13.346;2022-12-15T00:46:07;8.88;;;6.05;;
10588;SDS011;5342;55.676;13.346;2022-12-15T00:48:52;10.00;;;6.10;;
10588;SDS011;5342;55.676;13.346;2022-12-15T00:51:18;10.32;;;6.80;;
10588;SDS011;5342;55.676;13.346;2022-12-15T00:53:45;10.60;;;6.65;;
10588;SDS011;5342;55.676;13.346;2022-12-15T00:56:31;8.20;;;5.78;;
10588;SDS011;5342;55.676;13.346;2022-12-15T00:59:16;10.00;;;6.72;;
10588;SDS011;5342;55.676;13.346;2022-12-15T01:02:02;11.23;;;6.63;;
10588;SDS011;5342;55.676;13.346;2022-12-15T01:04:47;8.20;;;6.07;;
10588;SDS011;5342;55.676;13.346;2022-12-15T01:07:32;8.57;;;5.90;;
10588;SDS011;5342;55.676;13.346;2022-12-15T01:10:17;11.82;;;6.72;;
10588;SDS011;5342;55.676;13.346;2022-12-15T01:13:03;8.15;;;5.53;;
10588;SDS011;5342;55.676;13.346;2022-12-15T01:15:49;8.30;;;5.68;;
10588;SDS011;5342;55.676;13.346;2022-12-15T01:18:34;11.93;;;6.68;;
10588;SDS011;5342;55.676;13.346;2022-12-15T01:21:19;9.68;;;6.40;;
10588;SDS011;5342;55.676;13.346;2022-12-15T01:23:45;10.02;;;6.13;;
10588;SDS011;5342;55.676;13.346;2022-12-15T01:26:12;8.15;;;5.70;;
10588;SDS011;5342;55.676;13.346;2022-12-15T01:28:38;8.30;;;6.10;;
10588;SDS011;5342;55.676;13.346;2022-12-15T01:31:08;9.18;;;6.00;;
10588;SDS011;5342;55.676;13.346;2022-12-15T01:33:36;8.93;;;6.35;;
10588;SDS011;5342;55.676;13.346;2022-12-15T01:36:03;9.90;;;6.35;;
10588;SDS011;5342;55.676;13.346;2022-12-15T01:38:29;10.63;;;6.70;;
10588;SDS011;5342;55.676;13.346;2022-12-15T01:40:57;8.82;;;6.60;;
10588;SDS011;5342;55.676;13.346;2022-12-15T01:43:26;8.02;;;5.55;;
10588;SDS011;5342;55.676;13.346;2022-12-15T01:48:22;7.95;;;5.90;;
10588;SDS011;5342;55.676;13.346;2022-12-15T01:51:33;8.65;;;6.22;;
10588;SDS011;5342;55.676;13.346;2022-12-15T01:53:59;9.63;;;6.35;;
10588;SDS011;5342;55.676;13.346;2022-12-15T01:56:28;9.90;;;6.22;;
10588;SDS011;5342;55.676;13.346;2022-12-15T01:58:57;9.18;;;6.43;;
10588;SDS011;5342;55.676;13.346;2022-12-15T02:01:25;8.23;;;5.55;;
10588;SDS011;5342;55.676;13.346;2022-12-15T02:03:51;8.43;;;5.90;;
10588;SDS011;5342;55.676;13.346;2022-12-15T02:06:18;9.98;;;5.93;;
10588;SDS011;5342;55.676;13.346;2022-12-15T02:08:47;9.13;;;5.55;;
10588;SDS011;5342;55.676;13.346;2022-12-15T02:11:25;8.57;;;6.20;;
10588;SDS011;5342;55.676;13.346;2022-12-15T02:13:56;9.05;;;5.75;;
10588;SDS011;5342;55.676;13.346;2022-12-15T02:16:31;9.35;;;5.60;;
10588;SDS011;5342;55.676;13.346;2022-12-15T02:19:07;8.35;;;6.10;;
10588;SDS011;5342;55.676;13.346;2022-12-15T02:21:44;7.30;;;5.22;;
10588;SDS011;5342;55.676;13.346;2022-12-15T02:24:18;10.02;;;5.68;;
10588;SDS011;5342;55.676;13.346;2022-12-15T02:26:56;7.45;;;5.18;;
10588;SDS011;5342;55.676;13.346;2022-12-15T02:32:19;6.63;;;4.75;;
10588;SDS011;5342;55.676;13.346;2022-12-15T02:34:53;7.25;;;5.10;;
10588;SDS011;5342;55.676;13.346;2022-12-15T02:37:25;11.30;;;5.72;;
10588;SDS011;5342;55.676;13.346;2022-12-15T02:39:53;7.20;;;5.13;;
10588;SDS011;5342;55.676;13.346;2022-12-15T02:42:20;8.38;;;6.07;;
10588;SDS011;5342;55.676;13.346;2022-12-15T02:44:48;7.95;;;5.60;;
10588;SDS011;5342;55.676;13.346;2022-12-15T02:50:08;7.35;;;5.60;;
10588;SDS011;5342;55.676;13.346;2022-12-15T02:52:43;9.55;;;5.60;;
10588;SDS011;5342;55.676;13.346;2022-12-15T02:57:59;10.40;;;6.57;;
10588;SDS011;5342;55.676;13.346;2022-12-15T03:00:28;10.40;;;6.97;;
10588;SDS011;5342;55.676;13.346;2022-12-15T03:02:56;10.95;;;6.47;;
10588;SDS011;5342;55.676;13.346;2022-12-15T03:05:23;8.65;;;5.82;;
10588;SDS011;5342;55.676;13.346;2022-12-15T03:07:51;10.18;;;6.50;;
10588;SDS011;5342;55.676;13.346;2022-12-15T03:10:18;11.90;;;7.18;;
10588;SDS011;5342;55.676;13.346;2022-12-15T03:12:45;10.00;;;6.10;;
10588;SDS011;5342;55.676;13.346;2022-12-15T03:15:11;9.18;;;6.80;;
10588;SDS011;5342;55.676;13.346;2022-12-15T03:17:38;10.98;;;7.35;;
10588;SDS011;5342;55.676;13.346;2022-12-15T03:20:06;11.32;;;7.80;;
10588;SDS011;5342;55.676;13.346;2022-12-15T03:22:34;12.93;;;8.20;;
10588;SDS011;5342;55.676;13.346;2022-12-15T03:25:00;8.70;;;7.13;;
10588;SDS011;5342;55.676;13.346;2022-12-15T03:27:27;9.82;;;7.40;;
10588;SDS011;5342;55.676;13.346;2022-12-15T03:29:54;11.35;;;6.93;;
10588;SDS011;5342;55.676;13.346;2022-12-15T03:32:20;10.27;;;7.68;;
10588;SDS011;5342;55.676;13.346;2022-12-15T03:34:47;12.45;;;7.70;;
10588;SDS011;5342;55.676;13.346;2022-12-15T03:37:13;11.07;;;8.25;;
10588;SDS011;5342;55.676;13.346;2022-12-15T03:39:40;12.25;;;7.95;;
10588;SDS011;5342;55.676;13.346;2022-12-15T03:42:06;11.70;;;7.57;;
10588;SDS011;5342;55.676;13.346;2022-12-15T03:44:33;12.60;;;8.52;;
10588;SDS011;5342;55.676;13.346;2022-12-15T03:46:59;11.30;;;8.02;;
10588;SDS011;5342;55.676;13.346;2022-12-15T03:49:26;11.35;;;8.32;;
10588;SDS011;5342;55.676;13.346;2022-12-15T03:51:52;13.60;;;8.35;;
10588;SDS011;5342;55.676;13.346;2022-12-15T03:54:19;11.85;;;8.13;;
10588;SDS011;5342;55.676;13.346;2022-12-15T03:56:46;14.88;;;8.93;;
10588;SDS011;5342;55.676;13.346;2022-12-15T03:59:13;14.65;;;9.70;;
10588;SDS011;5342;55.676;13.346;2022-12-15T04:01:45;13.23;;;8.73;;
10588;SDS011;5342;55.676;13.346;2022-12-15T04:04:13;14.50;;;8.90;;
10588;SDS011;5342;55.676;13.346;2022-12-15T04:06:40;14.82;;;9.25;;
10588;SDS011;5342;55.676;13.346;2022-12-15T04:09:07;13.40;;;9.05;;
10588;SDS011;5342;55.676;13.346;2022-12-15T04:11:33;13.55;;;8.82;;
10588;SDS011;5342;55.676;13.346;2022-12-15T04:14:00;14.40;;;9.65;;
10588;SDS011;5342;55.676;13.346;2022-12-15T04:16:26;13.27;;;9.07;;
10588;SDS011;5342;55.676;13.346;2022-12-15T04:18:53;13.13;;;9.05;;
10588;SDS011;5342;55.676;13.346;2022-12-15T04:21:39;14.07;;;8.50;;
10588;SDS011;5342;55.676;13.346;2022-12-15T04:24:05;14.48;;;9.35;;
10588;SDS011;5342;55.676;13.346;2022-12-15T04:26:51;14.40;;;8.70;;
10588;SDS011;5342;55.676;13.346;2022-12-15T04:29:36;15.85;;;8.55;;
10588;SDS011;5342;55.676;13.346;2022-12-15T04:32:21;15.60;;;9.82;;
10588;SDS011;5342;55.676;13.346;2022-12-15T04:35:07;16.95;;;9.95;;
10588;SDS011;5342;55.676;13.346;2022-12-15T04:37:53;13.95;;;9.27;;
10588;SDS011;5342;55.676;13.346;2022-12-15T04:40:38;12.70;;;9.02;;
10588;SDS011;5342;55.676;13.346;2022-12-15T04:43:23;16.08;;;10.25;;
10588;SDS011;5342;55.676;13.346;2022-12-15T04:46:08;16.42;;;10.43;;
10588;SDS011;5342;55.676;13.346;2022-12-15T04:48:54;17.40;;;10.40;;
10588;SDS011;5342;55.676;13.346;2022-12-15T04:51:39;19.25;;;11.20;;
10588;SDS011;5342;55.676;13.346;2022-12-15T04:54:24;17.85;;;10.38;;
10588;SDS011;5342;55.676;13.346;2022-12-15T04:57:09;15.98;;;11.50;;
10588;SDS011;5342;55.676;13.346;2022-12-15T04:59:54;15.43;;;11.95;;
10588;SDS011;5342;55.676;13.346;2022-12-15T05:02:39;17.67;;;12.50;;
10588;SDS011;5342;55.676;13.346;2022-12-15T05:05:24;20.70;;;13.05;;
10588;SDS011;5342;55.676;13.346;2022-12-15T05:08:09;22.00;;;13.85;;
10588;SDS011;5342;55.676;13.346;2022-12-15T05:10:57;19.25;;;12.93;;
10588;SDS011;5342;55.676;13.346;2022-12-15T05:13:42;20.08;;;14.13;;
10588;SDS011;5342;55.676;13.346;2022-12-15T05:16:28;20.20;;;13.23;;
10588;SDS011;5342;55.676;13.346;2022-12-15T05:19:13;24.17;;;15.95;;
10588;SDS011;5342;55.676;13.346;2022-12-15T05:21:58;23.10;;;15.32;;
10588;SDS011;5342;55.676;13.346;2022-12-15T05:24:43;26.52;;;17.33;;
10588;SDS011;5342;55.676;13.346;2022-12-15T05:27:28;31.27;;;17.88;;
10588;SDS011;5342;55.676;13.346;2022-12-15T05:30:14;28.58;;;18.20;;
10588;SDS011;5342;55.676;13.346;2022-12-15T05:33:02;28.60;;;18.38;;
10588;SDS011;5342;55.676;13.346;2022-12-15T05:35:29;28.25;;;18.20;;
10588;SDS011;5342;55.676;13.346;2022-12-15T05:37:55;30.17;;;17.70;;
10588;SDS011;5342;55.676;13.346;2022-12-15T05:40:22;31.80;;;19.75;;
10588;SDS011;5342;55.676;13.346;2022-12-15T05:42:48;33.58;;;21.65;;
10588;SDS011;5342;55.676;13.346;2022-12-15T05:45:15;30.15;;;20.40;;
10588;SDS011;5342;55.676;13.346;2022-12-15T05:47:41;34.42;;;21.17;;
10588;SDS011;5342;55.676;13.346;2022-12-15T05:50:08;37.70;;;21.88;;
10588;SDS011;5342;55.676;13.346;2022-12-15T05:52:34;34.33;;;21.15;;
10588;SDS011;5342;55.676;13.346;2022-12-15T05:55:01;34.92;;;20.15;;
10588;SDS011;5342;55.676;13.346;2022-12-15T05:57:27;35.42;;;20.83;;
10588;SDS011;5342;55.676;13.346;2022-12-15T05:59:54;36.70;;;20.52;;
10588;SDS011;5342;55.676;13.346;2022-12-15T06:02:20;37.25;;;22.13;;
10588;SDS011;5342;55.676;13.346;2022-12-15T06:04:47;36.40;;;19.63;;
10588;SDS011;5342;55.676;13.346;2022-12-15T06:07:13;35.40;;;21.92;;
10588;SDS011;5342;55.676;13.346;2022-12-15T06:09:40;32.78;;;19.75;;
10588;SDS011;5342;55.676;13.346;2022-12-15T06:12:06;31.58;;;18.92;;
10588;SDS011;5342;55.676;13.346;2022-12-15T06:14:33;30.42;;;18.25;;
10588;SDS011;5342;55.676;13.346;2022-12-15T06:17:00;30.13;;;19.92;;
10588;SDS011;5342;55.676;13.346;2022-12-15T06:19:27;30.92;;;18.88;;
10588;SDS011;5342;55.676;13.346;2022-12-15T06:21:53;31.95;;;19.42;;
10588;SDS011;5342;55.676;13.346;2022-12-15T06:24:20;35.67;;;19.38;;
10588;SDS011;5342;55.676;13.346;2022-12-15T06:26:46;35.58;;;21.60;;
10588;SDS011;5342;55.676;13.346;2022-12-15T06:29:13;37.83;;;21.17;;
10588;SDS011;5342;55.676;13.346;2022-12-15T06:31:40;44.38;;;22.58;;
10588;SDS011;5342;55.676;13.346;2022-12-15T06:34:09;47.83;;;22.40;;
10588;SDS011;5342;55.676;13.346;2022-12-15T06:36:36;43.13;;;22.40;;
10588;SDS011;5342;55.676;13.346;2022-12-15T06:39:04;47.65;;;23.75;;
10588;SDS011;5342;55.676;13.346;2022-12-15T06:41:31;33.28;;;22.08;;
10588;SDS011;5342;55.676;13.346;2022-12-15T06:43:58;43.30;;;23.33;;
10588;SDS011;5342;55.676;13.346;2022-12-15T06:46:26;40.20;;;22.13;;
10588;SDS011;5342;55.676;13.346;2022-12-15T06:48:52;45.85;;;23.58;;
10588;SDS011;5342;55.676;13.346;2022-12-15T06:51:19;43.33;;;23.67;;
10588;SDS011;5342;55.676;13.346;2022-12-15T06:53:46;44.65;;;24.15;;
10588;SDS011;5342;55.676;13.346;2022-12-15T06:56:25;44.23;;;23.23;;
10588;SDS011;5342;55.676;13.346;2022-12-15T06:58:52;40.80;;;21.67;;
10588;SDS011;5342;55.676;13.346;2022-12-15T07:01:20;38.78;;;21.63;;
10588;SDS011;5342;55.676;13.346;2022-12-15T07:03:47;39.90;;;22.53;;
10588;SDS011;5342;55.676;13.346;2022-12-15T07:06:14;43.77;;;22.77;;
10588;SDS011;5342;55.676;13.346;2022-12-15T07:08:41;41.20;;;22.57;;
10588;SDS011;5342;55.676;13.346;2022-12-15T07:11:09;36.67;;;22.03;;
10588;SDS011;5342;55.676;13.346;2022-12-15T07:13:36;35.20;;;21.70;;
10588;SDS011;5342;55.676;13.346;2022-12-15T07:16:03;41.67;;;23.23;;
10588;SDS011;5342;55.676;13.346;2022-12-15T07:18:30;38.83;;;21.00;;
10588;SDS011;5342;55.676;13.346;2022-12-15T07:21:00;41.80;;;22.50;;
10588;SDS011;5342;55.676;13.346;2022-12-15T07:23:27;45.43;;;22.80;;
10588;SDS011;5342;55.676;13.346;2022-12-15T07:25:54;40.13;;;21.23;;
10588;SDS011;5342;55.676;13.346;2022-12-15T07:28:20;42.30;;;21.70;;
10588;SDS011;5342;55.676;13.346;2022-12-15T07:30:47;38.50;;;20.83;;
10588;SDS011;5342;55.676;13.346;2022-12-15T07:33:13;38.33;;;21.80;;
10588;SDS011;5342;55.676;13.346;2022-12-15T07:35:40;37.87;;;21.63;;
10588;SDS011;5342;55.676;13.346;2022-12-15T07:38:07;39.70;;;21.83;;
10588;SDS011;5342;55.676;13.346;2022-12-15T07:40:33;36.30;;;20.97;;
10588;SDS011;5342;55.676;13.346;2022-12-15T07:43:00;41.87;;;21.03;;
10588;SDS011;5342;55.676;13.346;2022-12-15T07:45:26;36.37;;;20.67;;
10588;SDS011;5342;55.676;13.346;2022-12-15T07:47:53;33.33;;;20.07;;
10588;SDS011;5342;55.676;13.346;2022-12-15T07:50:19;40.67;;;20.37;;
10588;SDS011;5342;55.676;13.346;2022-12-15T07:52:46;37.00;;;20.90;;
10588;SDS011;5342;55.676;13.346;2022-12-15T07:55:12;38.23;;;19.80;;
10588;SDS011;5342;55.676;13.346;2022-12-15T07:57:40;34.37;;;19.60;;
10588;SDS011;5342;55.676;13.346;2022-12-15T08:00:07;38.13;;;20.27;;
10588;SDS011;5342;55.676;13.346;2022-12-15T08:02:35;33.33;;;19.00;;
10588;SDS011;5342;55.676;13.346;2022-12-15T08:05:01;36.37;;;19.43;;
10588;SDS011;5342;55.676;13.346;2022-12-15T08:07:28;40.43;;;21.77;;
10588;SDS011;5342;55.676;13.346;2022-12-15T08:09:54;35.80;;;20.23;;
10588;SDS011;5342;55.676;13.346;2022-12-15T08:12:21;43.63;;;22.03;;
10588;SDS011;5342;55.676;13.346;2022-12-15T08:14:47;33.73;;;18.57;;
10588;SDS011;5342;55.676;13.346;2022-12-15T08:17:15;32.80;;;19.93;;
10588;SDS011;5342;55.676;13.346;2022-12-15T08:19:41;37.73;;;19.97;;
10588;SDS011;5342;55.676;13.346;2022-12-15T08:22:08;35.50;;;19.80;;
10588;SDS011;5342;55.676;13.346;2022-12-15T08:24:36;32.53;;;18.07;;
10588;SDS011;5342;55.676;13.346;2022-12-15T08:27:02;33.43;;;18.27;;
10588;SDS011;5342;55.676;13.346;2022-12-15T08:29:29;40.20;;;18.57;;
10588;SDS011;5342;55.676;13.346;2022-12-15T08:31:56;35.90;;;18.83;;
10588;SDS011;5342;55.676;13.346;2022-12-15T08:34:22;30.47;;;16.97;;
10588;SDS011;5342;55.676;13.346;2022-12-15T08:36:49;31.63;;;18.27;;
10588;SDS011;5342;55.676;13.346;2022-12-15T08:39:15;29.13;;;17.90;;
10588;SDS011;5342;55.676;13.346;2022-12-15T08:41:42;29.93;;;17.47;;
10588;SDS011;5342;55.676;13.346;2022-12-15T08:44:09;33.80;;;17.03;;
10588;SDS011;5342;55.676;13.346;2022-12-15T08:46:35;33.43;;;18.70;;
10588;SDS011;5342;55.676;13.346;2022-12-15T08:49:02;29.13;;;17.60;;
10588;SDS011;5342;55.676;13.346;2022-12-15T08:51:29;29.77;;;15.97;;
10588;SDS011;5342;55.676;13.346;2022-12-15T08:53:56;26.73;;;16.33;;
10588;SDS011;5342;55.676;13.346;2022-12-15T08:56:23;26.87;;;16.67;;
10588;SDS011;5342;55.676;13.346;2022-12-15T08:58:53;26.43;;;15.23;;
10588;SDS011;5342;55.676;13.346;2022-12-15T09:01:21;23.63;;;15.03;;
10588;SDS011;5342;55.676;13.346;2022-12-15T09:03:49;21.67;;;14.37;;
10588;SDS011;5342;55.676;13.346;2022-12-15T09:06:20;20.40;;;12.80;;
10588;SDS011;5342;55.676;13.346;2022-12-15T09:08:46;18.90;;;12.67;;
10588;SDS011;5342;55.676;13.346;2022-12-15T09:11:13;17.60;;;12.70;;
10588;SDS011;5342;55.676;13.346;2022-12-15T09:13:39;16.03;;;11.93;;
10588;SDS011;5342;55.676;13.346;2022-12-15T09:16:07;16.00;;;11.43;;
10588;SDS011;5342;55.676;13.346;2022-12-15T09:18:38;15.53;;;11.63;;
10588;SDS011;5342;55.676;13.346;2022-12-15T09:21:06;16.70;;;11.57;;
10588;SDS011;5342;55.676;13.346;2022-12-15T09:23:33;15.40;;;11.40;;
10588;SDS011;5342;55.676;13.346;2022-12-15T09:26:07;14.30;;;10.20;;
10588;SDS011;5342;55.676;13.346;2022-12-15T09:28:34;14.33;;;9.97;;
10588;SDS011;5342;55.676;13.346;2022-12-15T09:31:21;12.63;;;10.10;;
10588;SDS011;5342;55.676;13.346;2022-12-15T09:33:49;9.67;;;6.40;;
10588;SDS011;5342;55.676;13.346;2022-12-15T09:36:16;8.33;;;4.87;;
10588;SDS011;5342;55.676;13.346;2022-12-15T09:38:43;4.53;;;3.30;;
10588;SDS011;5342;55.676;13.346;2022-12-15T09:48:54;4.23;;;3.83;;
10588;SDS011;5342;55.676;13.346;2022-12-15T09:51:28;3.80;;;2.70;;
10588;SDS011;5342;55.676;13.346;2022-12-15T09:53:55;4.87;;;2.83;;
10588;SDS011;5342;55.676;13.346;2022-12-15T09:56:35;3.53;;;2.07;;
10588;SDS011;5342;55.676;13.346;2022-12-15T09:59:08;3.57;;;2.10;;
10588;SDS011;5342;55.676;13.346;2022-12-15T10:01:46;3.53;;;2.37;;
10588;SDS011;5342;55.676;13.346;2022-12-15T10:06:50;3.53;;;3.10;;
10588;SDS011;5342;55.676;13.346;2022-12-15T10:09:20;3.20;;;2.30;;
10588;SDS011;5342;55.676;13.346;2022-12-15T10:11:53;7.90;;;4.23;;
10588;SDS011;5342;55.676;13.346;2022-12-15T10:16:57;2.57;;;2.20;;
10588;SDS011;5342;55.676;13.346;2022-12-15T10:21:52;21.70;;;8.67;;
10588;SDS011;5342;55.676;13.346;2022-12-15T10:24:19;8.30;;;3.90;;
10588;SDS011;5342;55.676;13.346;2022-12-15T10:26:48;3.27;;;1.83;;
10588;SDS011;5342;55.676;13.346;2022-12-15T10:29:26;1.93;;;1.80;;
10588;SDS011;5342;55.676;13.346;2022-12-15T10:31:59;3.43;;;2.00;;
10588;SDS011;5342;55.676;13.346;2022-12-15T10:34:28;1.60;;;1.50;;
10588;SDS011;5342;55.676;13.346;2022-12-15T10:36:57;2.50;;;2.00;;
10588;SDS011;5342;55.676;13.346;2022-12-15T10:39:34;5.03;;;3.37;;
10588;SDS011;5342;55.676;13.346;2022-12-15T10:42:09;5.33;;;3.23;;
10588;SDS011;5342;55.676;13.346;2022-12-15T10:44:38;6.53;;;3.53;;
10588;SDS011;5342;55.676;13.346;2022-12-15T10:47:14;4.73;;;3.17;;
10588;SDS011;5342;55.676;13.346;2022-12-15T10:49:42;6.33;;;3.47;;
10588;SDS011;5342;55.676;13.346;2022-12-15T10:52:15;3.27;;;2.97;;
10588;SDS011;5342;55.676;13.346;2022-12-15T10:54:45;4.37;;;3.97;;
10588;SDS011;5342;55.676;13.346;2022-12-15T10:57:16;3.87;;;3.00;;
10588;SDS011;5342;55.676;13.346;2022-12-15T10:59:44;4.47;;;4.07;;
10588;SDS011;5342;55.676;13.346;2022-12-15T11:04:55;3.30;;;3.00;;
10588;SDS011;5342;55.676;13.346;2022-12-15T11:07:21;3.90;;;3.10;;
10588;SDS011;5342;55.676;13.346;2022-12-15T11:09:48;3.50;;;3.20;;
10588;SDS011;5342;55.676;13.346;2022-12-15T11:12:16;3.70;;;3.27;;
10588;SDS011;5342;55.676;13.346;2022-12-15T11:15:01;4.87;;;3.20;;
10588;SDS011;5342;55.676;13.346;2022-12-15T11:17:36;4.03;;;3.63;;
10588;SDS011;5342;55.676;13.346;2022-12-15T11:20:05;3.07;;;2.70;;
10588;SDS011;5342;55.676;13.346;2022-12-15T11:22:39;4.77;;;3.33;;
10588;SDS011;5342;55.676;13.346;2022-12-15T11:27:43;3.50;;;3.20;;
10588;SDS011;5342;55.676;13.346;2022-12-15T11:30:14;3.93;;;3.07;;
10588;SDS011;5342;55.676;13.346;2022-12-15T11:32:57;3.17;;;2.87;;
10588;SDS011;5342;55.676;13.346;2022-12-15T11:38:18;3.20;;;2.90;;
10588;SDS011;5342;55.676;13.346;2022-12-15T11:40:45;3.57;;;2.90;;
10588;SDS011;5342;55.676;13.346;2022-12-15T11:43:22;3.53;;;2.70;;
10588;SDS011;5342;55.676;13.346;2022-12-15T11:48:19;11.53;;;6.07;;
10588;SDS011;5342;55.676;13.346;2022-12-15T11:50:50;4.57;;;3.40;;
10588;SDS011;5342;55.676;13.346;2022-12-15T11:53:22;12.13;;;5.47;;
10588;SDS011;5342;55.676;13.346;2022-12-15T11:56:00;8.07;;;4.70;;
10588;SDS011;5342;55.676;13.346;2022-12-15T12:06:20;4.10;;;2.70;;
10588;SDS011;5342;55.676;13.346;2022-12-15T12:11:25;2.50;;;2.30;;
10588;SDS011;5342;55.676;13.346;2022-12-15T12:19:09;3.77;;;2.57;;
10588;SDS011;5342;55.676;13.346;2022-12-15T12:21:41;2.90;;;2.70;;
10588;SDS011;5342;55.676;13.346;2022-12-15T12:29:22;2.47;;;1.97;;
10588;SDS011;5342;55.676;13.346;2022-12-15T12:31:56;4.37;;;2.73;;
10588;SDS011;5342;55.676;13.346;2022-12-15T12:34:33;2.40;;;2.10;;
10588;SDS011;5342;55.676;13.346;2022-12-15T12:39:46;40.20;;;17.13;;
10588;SDS011;5342;55.676;13.346;2022-12-15T12:44:40;12.40;;;6.37;;
10588;SDS011;5342;55.676;13.346;2022-12-15T12:47:15;11.00;;;7.63;;
10588;SDS011;5342;55.676;13.346;2022-12-15T12:49:51;4.63;;;3.10;;
10588;SDS011;5342;55.676;13.346;2022-12-15T12:52:23;3.80;;;3.37;;
10588;SDS011;5342;55.676;13.346;2022-12-15T12:54:53;3.67;;;2.70;;
10588;SDS011;5342;55.676;13.346;2022-12-15T12:57:54;6.37;;;5.00;;
10588;SDS011;5342;55.676;13.346;2022-12-15T13:00:15;5.30;;;4.50;;
10588;SDS011;5342;55.676;13.346;2022-12-15T13:02:44;7.83;;;4.80;;
10588;SDS011;5342;55.676;13.346;2022-12-15T13:10:36;2.73;;;2.40;;
10588;SDS011;5342;55.676;13.346;2022-12-15T13:15:49;3.77;;;2.53;;
10588;SDS011;5342;55.676;13.346;2022-12-15T13:18:24;3.00;;;2.60;;
10588;SDS011;5342;55.676;13.346;2022-12-15T13:20:53;2.97;;;2.67;;
10588;SDS011;5342;55.676;13.346;2022-12-15T13:28:24;3.30;;;3.00;;
10588;SDS011;5342;55.676;13.346;2022-12-15T13:36:10;5.87;;;3.10;;
10588;SDS011;5342;55.676;13.346;2022-12-15T13:38:50;3.70;;;2.90;;
10588;SDS011;5342;55.676;13.346;2022-12-15T13:41:21;10.33;;;3.40;;
10588;SDS011;5342;55.676;13.346;2022-12-15T13:43:48;7.60;;;4.47;;
10588;SDS011;5342;55.676;13.346;2022-12-15T13:46:21;4.53;;;3.17;;
10588;SDS011;5342;55.676;13.346;2022-12-15T13:48:52;4.97;;;2.60;;
10588;SDS011;5342;55.676;13.346;2022-12-15T13:51:33;3.73;;;3.33;;
10588;SDS011;5342;55.676;13.346;2022-12-15T13:54:03;3.17;;;2.87;;
10588;SDS011;5342;55.676;13.346;2022-12-15T13:59:28;2.80;;;2.50;;
10588;SDS011;5342;55.676;13.346;2022-12-15T14:01:55;3.60;;;3.13;;
10588;SDS011;5342;55.676;13.346;2022-12-15T14:04:22;3.27;;;2.73;;
10588;SDS011;5342;55.676;13.346;2022-12-15T14:06:59;3.30;;;2.80;;
10588;SDS011;5342;55.676;13.346;2022-12-15T14:09:28;4.60;;;3.20;;
10588;SDS011;5342;55.676;13.346;2022-12-15T14:11:55;5.37;;;3.60;;
10588;SDS011;5342;55.676;13.346;2022-12-15T14:31:29;4.80;;;4.10;;
10588;SDS011;5342;55.676;13.346;2022-12-15T14:34:05;6.20;;;4.10;;
10588;SDS011;5342;55.676;13.346;2022-12-15T14:36:33;4.13;;;3.72;;
10588;SDS011;5342;55.676;13.346;2022-12-15T14:39:02;5.50;;;3.78;;
10588;SDS011;5342;55.676;13.346;2022-12-15T14:41:36;3.95;;;3.38;;
10588;SDS011;5342;55.676;13.346;2022-12-15T14:44:04;4.18;;;3.13;;
10588;SDS011;5342;55.676;13.346;2022-12-15T14:46:31;5.43;;;3.50;;
10588;SDS011;5342;55.676;13.346;2022-12-15T14:49:01;5.57;;;3.55;;
10588;SDS011;5342;55.676;13.346;2022-12-15T14:51:29;4.13;;;3.40;;
10588;SDS011;5342;55.676;13.346;2022-12-15T14:53:57;4.78;;;3.40;;
10588;SDS011;5342;55.676;13.346;2022-12-15T14:56:26;4.18;;;3.63;;
10588;SDS011;5342;55.676;13.346;2022-12-15T14:58:58;5.00;;;4.00;;
10588;SDS011;5342;55.676;13.346;2022-12-15T15:01:29;6.95;;;4.78;;
10588;SDS011;5342;55.676;13.346;2022-12-15T15:03:59;9.63;;;6.82;;
10588;SDS011;5342;55.676;13.346;2022-12-15T15:06:27;9.88;;;7.82;;
10588;SDS011;5342;55.676;13.346;2022-12-15T15:08:54;11.63;;;7.80;;
10588;SDS011;5342;55.676;13.346;2022-12-15T15:11:31;12.68;;;7.22;;
10588;SDS011;5342;55.676;13.346;2022-12-15T15:14:04;8.45;;;6.40;;
10588;SDS011;5342;55.676;13.346;2022-12-15T15:16:31;8.45;;;5.75;;
10588;SDS011;5342;55.676;13.346;2022-12-15T15:18:58;5.95;;;4.88;;
10588;SDS011;5342;55.676;13.346;2022-12-15T15:21:27;4.57;;;4.07;;
10588;SDS011;5342;55.676;13.346;2022-12-15T15:26:24;5.07;;;4.05;;
10588;SDS011;5342;55.676;13.346;2022-12-15T15:28:51;4.50;;;3.45;;
10588;SDS011;5342;55.676;13.346;2022-12-15T15:33:51;4.05;;;3.20;;
10588;SDS011;5342;55.676;13.346;2022-12-15T15:36:19;4.53;;;3.53;;
10588;SDS011;5342;55.676;13.346;2022-12-15T15:38:47;4.00;;;3.08;;
10588;SDS011;5342;55.676;13.346;2022-12-15T15:41:47;4.47;;;3.50;;
10588;SDS011;5342;55.676;13.346;2022-12-15T15:44:13;6.15;;;3.78;;
10588;SDS011;5342;55.676;13.346;2022-12-15T15:46:47;5.65;;;3.70;;
10588;SDS011;5342;55.676;13.346;2022-12-15T15:49:15;4.57;;;3.28;;
10588;SDS011;5342;55.676;13.346;2022-12-15T15:51:43;6.35;;;3.50;;
10588;SDS011;5342;55.676;13.346;2022-12-15T15:54:11;4.22;;;3.45;;
10588;SDS011;5342;55.676;13.346;2022-12-15T15:56:38;7.68;;;3.47;;
10588;SDS011;5342;55.676;13.346;2022-12-15T15:59:13;6.32;;;3.40;;
10588;SDS011;5342;55.676;13.346;2022-12-15T16:01:41;6.53;;;2.80;;
